Date,TemperatureHighF,TemperatureAvgF,TemperatureLowF,DewpointHighF,DewpointAvgF,DewpointLowF,HumidityHigh,HumidityAvg,HumidityLow,PressureMaxIn,PressureMinIn,WindSpeedMaxMPH,WindSpeedAvgMPH,GustSpeedMaxMPH,PrecipitationSumIn
2013-1-1,28.0,20.3,10.0,8.9,-3.4,-11.7,47,35,22,29.15,29.00,8,1,8,0.00
2013-1-2,25.5,20.5,13.5,6.2,2.1,-3.0,49,44,36,29.18,29.06,8,0,8,0.00
2013-1-3,28.6,23.3,16.5,14.6,6.3,-4.5,56,48,38,29.15,29.03,7,1,7,0.00
2013-1-4,30.7,26.8,22.8,12.1,6.6,2.8,51,42,32,29.18,28.97,11,2,11,0.00
2013-1-5,32.2,25.8,15.8,20.7,10.8,5.4,66,53,40,29.26,29.00,8,0,8,0.00
2013-1-6,35.1,32.9,31.1,24.4,20.7,13.2,71,61,44,29.23,28.88,8,1,8,0.00
2013-1-8,29.1,28.4,27.1,14.6,13.8,12.9,56,54,51,29.21,29.15,3,0,3,0.00
2013-1-9,44.4,36.5,27.0,24.3,14.6,0.2,66,45,18,29.26,29.00,10,2,10,0.04
2013-1-10,34.9,34.9,34.9,20.4,20.4,20.4,55,55,55,29.32,29.29,6,1,6,0.00
2013-1-11,53.1,42.9,34.5,47.4,34.6,25.6,81,73,53,29.18,28.76,8,1,8,0.43
2013-1-12,57.9,49.8,43.5,43.1,37.1,31.3,79,64,37,28.94,28.82,6,0,6,0.00
2013-1-13,49.6,38.2,30.6,41.3,29.1,22.6,75,70,56,29.00,28.73,9,1,9,0.47
2013-1-14,30.6,23.9,18.3,22.1,4.7,-0.1,71,44,34,29.41,29.00,0,0,0,0.04
2013-1-15,30.0,22.3,15.1,11.1,3.2,-2.8,60,45,25,29.41,29.12,0,0,0,0.00
2013-1-16,36.9,28.7,19.9,13.9,4.6,-6.2,61,39,17,29.12,28.79,10,1,10,0.00
2013-1-17,34.0,29.0,16.7,15.6,5.0,-16.2,53,36,20,29.29,28.91,13,2,13,0.00
2013-1-18,34.2,24.4,12.6,7.2,-1.0,-12.4,50,33,20,29.41,28.94,13,2,13,0.00
2013-1-19,46.6,38.9,32.0,19.7,12.0,5.9,40,33,24,28.94,28.56,11,2,11,0.00
2013-1-20,43.2,22.2,15.1,19.3,-9.2,-15.4,42,24,16,29.15,28.53,15,3,15,0.00
2013-1-21,17.8,12.4,3.4,-1.2,-12.4,-23.1,47,32,23,29.15,28.94,9,1,9,0.00
2013-1-22,9.7,4.0,-1.8,-17.6,-22.6,-27.6,27,27,27,29.23,29.09,10,1,10,0.00
2013-1-23,17.1,9.9,1.6,-2.6,-13.0,-24.6,46,34,27,29.26,29.06,8,0,8,0.00
2013-1-24,16.9,12.2,7.7,-3.1,-11.5,-20.6,46,35,21,29.56,29.09,8,1,8,0.00
2013-1-25,21.6,16.7,11.1,5.1,-3.9,-20.3,57,41,22,29.50,29.00,6,0,6,0.00
2013-1-26,26.1,20.0,12.7,8.3,2.0,-4.6,60,46,29,29.44,29.03,9,1,9,0.00
2013-1-27,28.9,21.6,8.8,19.9,2.7,-8.2,69,45,28,29.47,29.12,9,1,9,0.00
2013-1-28,43.2,35.8,28.9,37.1,29.3,19.9,80,77,70,29.15,28.82,9,0,9,0.31
2013-1-29,54.1,43.9,32.4,48.8,38.1,26.3,82,80,78,29.00,28.50,7,0,7,0.87
2013-1-30,58.5,48.9,33.3,53.0,40.6,18.9,82,73,55,28.50,28.11,10,1,10,0.51
2013-1-31,33.3,22.4,15.8,18.7,1.0,-9.4,55,39,22,28.85,28.20,10,0,10,0.00